createdAt,value
2022-11-20T00:01:23.174Z,-3.37
2022-11-20T00:03:55.880Z,-3.37
2022-11-20T00:06:27.850Z,-3.38
2022-11-20T00:08:59.354Z,-3.36
2022-11-20T00:11:32.011Z,-3.37
2022-11-20T00:14:04.052Z,-3.39
2022-11-20T00:16:36.032Z,-3.43
2022-11-20T00:19:07.609Z,-3.44
2022-11-20T00:21:38.392Z,-3.46
2022-11-20T00:24:11.301Z,-3.45
2022-11-20T00:26:41.907Z,-3.47
2022-11-20T00:29:13.080Z,-3.48
2022-11-20T00:31:43.750Z,-3.49
2022-11-20T00:34:15.541Z,-3.52
2022-11-20T00:36:46.019Z,-3.56
2022-11-20T00:39:16.408Z,-3.53
2022-11-20T00:41:47.350Z,-3.55
2022-11-20T00:44:17.500Z,-3.55
2022-11-20T00:46:48.545Z,-3.51
2022-11-20T00:49:20.632Z,-3.48
2022-11-20T00:51:51.399Z,-3.48
2022-11-20T00:54:22.551Z,-3.44
2022-11-20T00:56:55.103Z,-3.43
2022-11-20T00:59:25.203Z,-3.40
2022-11-20T01:01:56.633Z,-3.44
2022-11-20T01:04:28.331Z,-3.40
2022-11-20T01:06:59.122Z,-3.35
2022-11-20T01:09:29.352Z,-3.42
2022-11-20T01:12:00.394Z,-3.37
2022-11-20T01:14:31.512Z,-3.34
2022-11-20T01:17:01.674Z,-3.39
2022-11-20T01:19:33.376Z,-3.44
2022-11-20T01:22:03.963Z,-3.45
2022-11-20T01:24:34.381Z,-3.42
2022-11-20T01:27:05.342Z,-3.40
2022-11-20T01:29:35.571Z,-3.39
2022-11-20T01:32:06.317Z,-3.42
2022-11-20T01:34:37.841Z,-3.34
2022-11-20T01:37:08.672Z,-3.37
2022-11-20T01:39:39.003Z,-3.34
2022-11-20T01:42:28.431Z,-3.32
2022-11-20T01:45:01.250Z,-3.31
2022-11-20T01:47:37.504Z,-3.28
2022-11-20T01:50:18.203Z,-3.30
2022-11-20T01:52:52.187Z,-3.28
2022-11-20T01:55:26.265Z,-3.27
2022-11-20T01:57:58.530Z,-3.25
2022-11-20T02:00:29.405Z,-3.55
2022-11-20T02:03:02.998Z,-3.25
2022-11-20T02:05:38.164Z,-3.29
2022-11-20T02:08:09.530Z,-3.28
2022-11-20T02:10:39.764Z,-3.31
2022-11-20T02:13:29.150Z,-3.33
2022-11-20T02:16:00.249Z,-3.30
2022-11-20T02:18:31.365Z,-3.30
2022-11-20T02:21:09.855Z,-3.34
2022-11-20T02:23:46.637Z,-3.37
2022-11-20T02:26:21.285Z,-3.42
2022-11-20T02:28:51.684Z,-3.39
2022-11-20T02:31:21.857Z,-3.43
2022-11-20T02:33:58.595Z,-3.45
2022-11-20T02:36:31.795Z,-3.44
2022-11-20T02:39:02.778Z,-3.42
2022-11-20T02:41:40.466Z,-3.43
2022-11-20T02:44:11.026Z,-3.37
2022-11-20T02:46:42.295Z,-3.38
2022-11-20T02:49:12.365Z,-3.38
2022-11-20T02:51:42.764Z,-3.37
2022-11-20T02:54:14.390Z,-3.38
2022-11-20T02:56:46.434Z,-3.38
2022-11-20T02:59:16.834Z,-3.38
2022-11-20T03:01:47.260Z,-3.42
2022-11-20T03:04:18.177Z,-3.41
2022-11-20T03:06:49.255Z,-3.41
2022-11-20T03:09:19.756Z,-3.39
2022-11-20T03:11:51.675Z,-3.41
2022-11-20T03:14:22.344Z,-3.39
2022-11-20T03:16:52.655Z,-3.31
2022-11-20T03:19:23.684Z,-3.34
2022-11-20T03:21:54.046Z,-3.38
2022-11-20T03:24:24.806Z,-3.40
2022-11-20T03:26:56.555Z,-3.37
2022-11-20T03:29:27.514Z,-3.37
2022-11-20T03:31:57.999Z,-3.40
2022-11-20T03:34:28.706Z,-3.49
2022-11-20T03:36:59.705Z,-3.48
2022-11-20T03:39:31.324Z,-3.48
2022-11-20T03:42:03.026Z,-3.55
2022-11-20T03:44:34.066Z,-3.60
2022-11-20T03:47:04.426Z,-3.68
2022-11-20T03:49:34.995Z,-3.78
2022-11-20T03:52:05.497Z,-3.88
2022-11-20T03:54:36.005Z,-3.95
2022-11-20T03:57:07.817Z,-4.05
2022-11-20T03:59:38.465Z,-4.14
2022-11-20T04:02:08.791Z,-4.28
2022-11-20T04:04:40.097Z,-4.45
2022-11-20T04:07:10.339Z,-4.46
2022-11-20T04:09:44.347Z,-4.65
2022-11-20T04:12:16.395Z,-4.71
2022-11-20T04:14:47.125Z,-4.78
2022-11-20T04:17:17.744Z,-4.86
2022-11-20T04:19:48.668Z,-4.91
2022-11-20T04:22:20.285Z,-4.98
2022-11-20T04:24:55.116Z,-5.08
2022-11-20T04:27:27.234Z,-5.14
2022-11-20T04:29:58.124Z,-5.18
2022-11-20T04:32:29.296Z,-5.30
2022-11-20T04:35:07.639Z,-5.34
2022-11-20T04:37:48.244Z,-5.36
2022-11-20T04:40:53.796Z,-5.50
2022-11-20T04:43:26.185Z,-5.51
2022-11-20T04:46:20.182Z,-5.56
2022-11-20T04:48:50.883Z,-5.77
2022-11-20T04:51:21.975Z,-5.76
2022-11-20T04:53:52.423Z,-5.86
2022-11-20T04:56:23.692Z,-6.01
2022-11-20T04:58:56.362Z,-5.99
2022-11-20T05:01:29.830Z,-5.95
2022-11-20T05:03:59.933Z,-6.05
2022-11-20T05:06:30.565Z,-5.96
2022-11-20T05:09:02.154Z,-6.00
2022-11-20T05:11:34.243Z,-6.14
2022-11-20T05:14:06.194Z,-6.22
2022-11-20T05:16:38.072Z,-6.18
2022-11-20T05:19:10.001Z,-6.17
2022-11-20T05:21:41.192Z,-6.23
2022-11-20T05:24:13.338Z,-6.34
2022-11-20T05:26:44.002Z,-6.34
2022-11-20T05:29:19.471Z,-6.41
2022-11-20T05:31:50.295Z,-6.50
2022-11-20T05:34:20.392Z,-6.47
2022-11-20T05:36:51.082Z,-6.44
2022-11-20T05:39:21.241Z,-6.44
2022-11-20T05:42:14.223Z,-6.44
2022-11-20T05:44:46.070Z,-6.46
2022-11-20T05:47:16.612Z,-6.33
2022-11-20T05:49:47.142Z,-6.31
2022-11-20T05:52:17.844Z,-6.33
2022-11-20T05:54:50.343Z,-6.23
2022-11-20T05:57:20.762Z,-6.16
2022-11-20T05:59:52.374Z,-6.08
2022-11-20T06:02:24.643Z,-6.04
2022-11-20T06:04:58.444Z,-5.94
2022-11-20T06:07:34.654Z,-5.90
2022-11-20T06:10:05.292Z,-5.82
2022-11-20T06:12:36.653Z,-5.85
2022-11-20T06:15:09.654Z,-5.85
2022-11-20T06:17:40.632Z,-5.90
2022-11-20T06:20:12.125Z,-5.83
2022-11-20T06:22:43.972Z,-5.73
2022-11-20T06:25:14.312Z,-5.60
2022-11-20T06:27:48.583Z,-5.51
2022-11-20T06:30:22.772Z,-5.40
2022-11-20T06:32:54.633Z,-5.37
2022-11-20T06:35:29.235Z,-5.33
2022-11-20T06:37:59.904Z,-5.34
2022-11-20T06:40:29.906Z,-5.28
2022-11-20T06:43:03.925Z,-5.24
2022-11-20T06:45:35.562Z,-5.24
2022-11-20T06:48:06.294Z,-5.34
2022-11-20T06:50:39.224Z,-5.36
2022-11-20T06:53:12.833Z,-5.33
2022-11-20T06:55:53.663Z,-5.29
2022-11-20T06:58:24.172Z,-5.27
2022-11-20T07:00:56.736Z,-5.19
2022-11-20T07:03:27.348Z,-5.13
2022-11-20T07:06:01.603Z,-5.08
2022-11-20T07:08:35.014Z,-5.03
2022-11-20T07:11:14.659Z,-4.96
2022-11-20T07:13:47.537Z,-4.89
2022-11-20T07:16:20.887Z,-4.80
2022-11-20T07:18:51.423Z,-4.81
2022-11-20T07:21:21.789Z,-4.79
2022-11-20T07:23:52.443Z,-4.74
2022-11-20T07:26:22.764Z,-4.65
2022-11-20T07:28:55.496Z,-4.57
2022-11-20T07:31:27.392Z,-4.47
2022-11-20T07:33:58.686Z,-4.39
2022-11-20T07:36:28.963Z,-4.43
2022-11-20T07:39:00.774Z,-4.39
2022-11-20T07:41:31.016Z,-4.29
2022-11-20T07:44:01.799Z,-4.23
2022-11-20T07:46:36.725Z,-4.10
2022-11-20T07:49:07.905Z,-3.99
2022-11-20T07:51:38.197Z,-3.95
2022-11-20T07:54:25.135Z,-3.93
2022-11-20T07:56:57.073Z,-3.87
2022-11-20T07:59:28.137Z,-3.79
2022-11-20T08:02:00.407Z,-3.71
2022-11-20T08:04:31.287Z,-3.62
2022-11-20T08:07:03.230Z,-3.58
2022-11-20T08:09:33.985Z,-3.55
2022-11-20T08:12:22.378Z,-3.53
2022-11-20T08:14:53.046Z,-3.52
2022-11-20T08:17:25.454Z,-3.56
2022-11-20T08:19:59.055Z,-3.47
2022-11-20T08:22:30.403Z,-3.43
2022-11-20T08:25:01.110Z,-3.35
2022-11-20T08:27:34.045Z,-3.38
2022-11-20T08:30:05.896Z,-3.35
2022-11-20T08:32:39.366Z,-3.29
2022-11-20T08:35:11.557Z,-3.27
2022-11-20T08:37:52.997Z,-3.22
2022-11-20T08:40:23.749Z,-3.23
2022-11-20T08:42:54.312Z,-3.27
2022-11-20T08:45:28.392Z,-3.23
2022-11-20T08:48:05.848Z,-3.18
2022-11-20T08:50:36.217Z,-3.15
2022-11-20T08:53:09.796Z,-3.15
2022-11-20T08:55:41.107Z,-3.16
2022-11-20T08:58:12.717Z,-3.13
2022-11-20T09:00:43.496Z,-3.08
2022-11-20T09:03:15.417Z,-3.02
2022-11-20T09:05:48.562Z,-3.08
2022-11-20T09:08:23.682Z,-3.07
2022-11-20T09:10:55.645Z,-3.08
2022-11-20T09:13:27.774Z,-3.11
2022-11-20T09:15:59.034Z,-3.13
2022-11-20T09:18:35.254Z,-3.13
2022-11-20T09:21:08.150Z,-3.13
2022-11-20T09:23:40.095Z,-3.14
2022-11-20T09:26:15.104Z,-3.15
2022-11-20T09:28:45.495Z,-3.12
2022-11-20T09:31:25.269Z,-3.13
2022-11-20T09:33:57.283Z,-3.15
2022-11-20T09:36:27.716Z,-3.15
2022-11-20T09:38:59.025Z,-3.01
2022-11-20T09:41:56.772Z,-3.04
2022-11-20T09:44:41.956Z,-3.07
2022-11-20T09:47:20.776Z,-3.01
2022-11-20T09:50:09.140Z,-2.96
2022-11-20T09:52:54.396Z,-2.89
2022-11-20T09:55:24.818Z,-2.84
2022-11-20T09:57:56.476Z,-2.88
2022-11-20T10:00:26.695Z,-2.90
2022-11-20T10:03:03.628Z,-2.89
2022-11-20T10:05:43.557Z,-2.89
2022-11-20T10:08:19.895Z,-2.84
2022-11-20T10:10:53.955Z,-2.87
2022-11-20T10:13:37.607Z,-2.87
2022-11-20T10:16:24.937Z,-2.94
2022-11-20T10:19:09.917Z,-2.87
2022-11-20T10:21:54.696Z,-2.77
2022-11-20T10:24:51.064Z,-2.64
2022-11-20T10:27:59.066Z,-2.63
2022-11-20T10:30:31.775Z,-2.57
2022-11-20T10:33:12.502Z,-2.55
2022-11-20T10:35:48.300Z,-2.57
2022-11-20T10:38:25.166Z,-2.53
2022-11-20T10:41:21.654Z,-2.44
2022-11-20T10:43:56.577Z,-2.37
2022-11-20T10:46:28.255Z,-2.37
2022-11-20T10:48:58.546Z,-2.37
2022-11-20T10:51:40.057Z,-2.29
2022-11-20T10:54:41.857Z,-2.23
2022-11-20T10:57:24.436Z,-2.20
2022-11-20T11:00:06.954Z,-2.20
2022-11-20T11:02:44.724Z,-2.16
2022-11-20T11:05:25.707Z,-2.14
2022-11-20T11:07:58.858Z,-2.23
2022-11-20T11:10:37.935Z,-2.26
2022-11-20T11:13:08.678Z,-2.26
2022-11-20T11:15:42.116Z,-2.18
2022-11-20T11:18:14.167Z,-2.13
2022-11-20T11:20:55.920Z,-2.13
2022-11-20T11:23:35.148Z,-2.13
2022-11-20T11:26:08.309Z,-2.13
2022-11-20T11:28:39.394Z,-2.05
2022-11-20T11:31:09.624Z,-2.03
2022-11-20T11:33:40.207Z,-1.98
2022-11-20T11:36:22.867Z,-1.96
2022-11-20T11:38:55.995Z,-2.00
2022-11-20T11:41:36.184Z,-2.01
2022-11-20T11:44:38.105Z,-1.96
2022-11-20T11:47:12.840Z,-1.94
2022-11-20T11:49:43.304Z,-1.94
2022-11-20T11:52:18.867Z,-1.94
2022-11-20T11:54:55.701Z,-1.99
2022-11-20T11:57:44.558Z,-1.98
2022-11-20T12:00:18.155Z,-1.91
2022-11-20T12:03:00.384Z,-1.85
2022-11-20T12:05:33.655Z,-1.85
2022-11-20T12:08:12.494Z,-1.84
2022-11-20T12:10:50.906Z,-1.86
2022-11-20T12:13:52.586Z,-1.87
2022-11-20T12:16:23.769Z,-1.89
2022-11-20T12:18:56.478Z,-1.93
2022-11-20T12:21:35.925Z,-1.91
2022-11-20T12:24:43.978Z,-1.92
2022-11-20T12:28:05.227Z,-1.86
2022-11-20T12:30:44.465Z,-1.87
2022-11-20T12:33:34.101Z,-1.84
2022-11-20T12:36:20.446Z,-1.86
2022-11-20T12:39:20.122Z,-1.87
2022-11-20T12:42:23.005Z,-1.91
2022-11-20T12:45:14.045Z,-1.92
2022-11-20T12:48:16.926Z,-1.92
2022-11-20T12:51:17.920Z,-1.92
2022-11-20T12:54:03.206Z,-1.93
2022-11-20T12:56:44.394Z,-1.88
2022-11-20T12:59:35.661Z,-1.90
2022-11-20T13:02:27.490Z,-1.90
2022-11-20T13:05:26.932Z,-1.92
2022-11-20T13:07:58.100Z,-1.90
2022-11-20T13:10:38.050Z,-1.95
2022-11-20T13:13:21.382Z,-1.92
2022-11-20T13:15:58.930Z,-1.91
2022-11-20T13:18:30.023Z,-1.91
2022-11-20T13:21:01.951Z,-1.90
2022-11-20T13:23:32.503Z,-1.91
2022-11-20T13:26:19.901Z,-1.90
2022-11-20T13:29:02.836Z,-1.88
2022-11-20T13:31:36.456Z,-1.95
2022-11-20T13:34:09.578Z,-1.92
2022-11-20T13:36:53.808Z,-1.89
2022-11-20T13:39:28.818Z,-1.87
2022-11-20T13:42:00.572Z,-2.16
2022-11-20T13:44:39.009Z,-1.92
2022-11-20T13:47:24.588Z,-1.95
2022-11-20T13:49:56.974Z,-1.95
2022-11-20T13:52:42.417Z,-1.96
2022-11-20T13:55:24.093Z,-1.93
2022-11-20T13:58:15.049Z,-1.97
2022-11-20T14:00:51.503Z,-2.02
2022-11-20T14:03:44.013Z,-2.01
2022-11-20T14:06:25.159Z,-2.01
2022-11-20T14:08:57.357Z,-2.04
2022-11-20T14:11:29.550Z,-2.03
2022-11-20T14:14:03.147Z,-2.05
2022-11-20T14:16:38.473Z,-2.05
2022-11-20T14:19:33.566Z,-2.03
2022-11-20T14:22:19.316Z,-2.02
2022-11-20T14:24:52.319Z,-2.03
2022-11-20T14:27:24.468Z,-2.05
2022-11-20T14:29:54.991Z,-2.10
2022-11-20T14:32:31.029Z,-2.14
2022-11-20T14:35:09.969Z,-2.10
2022-11-20T14:37:43.426Z,-2.10
2022-11-20T14:40:31.852Z,-2.14
2022-11-20T14:43:02.746Z,-2.15
2022-11-20T14:45:34.629Z,-2.13
2022-11-20T14:48:05.206Z,-2.14
2022-11-20T14:50:35.288Z,-2.16
2022-11-20T14:53:06.708Z,-2.19
2022-11-20T14:55:39.969Z,-2.19
2022-11-20T14:58:25.516Z,-2.19
2022-11-20T15:01:01.047Z,-2.21
2022-11-20T15:03:35.959Z,-2.23
2022-11-20T15:06:07.298Z,-2.24
2022-11-20T15:08:38.876Z,-2.23
2022-11-20T15:11:23.316Z,-2.22
2022-11-20T15:13:54.169Z,-2.21
2022-11-20T15:16:26.306Z,-2.23
2022-11-20T15:18:57.647Z,-2.24
2022-11-20T15:21:27.699Z,-2.27
2022-11-20T15:23:59.648Z,-2.28
2022-11-20T15:26:31.296Z,-2.27
2022-11-20T15:29:01.867Z,-2.21
2022-11-20T15:31:31.847Z,-2.24
2022-11-20T15:34:03.061Z,-2.28
2022-11-20T15:36:33.898Z,-2.26
2022-11-20T15:39:04.708Z,-2.29
2022-11-20T15:41:36.354Z,-2.29
2022-11-20T15:44:07.807Z,-2.32
2022-11-20T15:46:43.827Z,-2.36
2022-11-20T15:49:16.416Z,-2.35
2022-11-20T15:51:50.034Z,-2.38
2022-11-20T15:54:23.598Z,-2.39
2022-11-20T15:56:57.135Z,-2.38
2022-11-20T15:59:28.108Z,-2.33
2022-11-20T16:01:58.333Z,-2.38
2022-11-20T16:04:29.847Z,-2.39
2022-11-20T16:07:00.392Z,-2.36
2022-11-20T16:09:31.079Z,-2.41
2022-11-20T16:12:03.107Z,-2.42
2022-11-20T16:14:50.918Z,-2.43
2022-11-20T16:17:41.218Z,-2.47
2022-11-20T16:20:14.600Z,-2.52
2022-11-20T16:22:44.814Z,-2.50
2022-11-20T16:25:17.432Z,-2.51
2022-11-20T16:27:49.267Z,-2.53
2022-11-20T16:30:22.822Z,-2.55
2022-11-20T16:32:54.617Z,-2.56
2022-11-20T16:35:25.227Z,-2.56
2022-11-20T16:37:55.606Z,-2.58
2022-11-20T16:40:26.479Z,-2.56
2022-11-20T16:42:59.526Z,-2.56
2022-11-20T16:45:33.849Z,-2.57
2022-11-20T16:48:04.187Z,-2.56
2022-11-20T16:50:34.814Z,-2.55
2022-11-20T16:53:05.026Z,-2.54
2022-11-20T16:55:35.554Z,-2.57
2022-11-20T16:58:07.100Z,-2.57
2022-11-20T17:00:39.398Z,-2.57
2022-11-20T17:03:11.157Z,-2.58
2022-11-20T17:05:41.750Z,-2.54
2022-11-20T17:08:13.200Z,-2.55
2022-11-20T17:10:43.618Z,-2.57
2022-11-20T17:13:15.931Z,-2.56
2022-11-20T17:15:46.341Z,-2.58
2022-11-20T17:18:17.512Z,-2.57
2022-11-20T17:20:55.117Z,-2.59
2022-11-20T17:23:25.126Z,-2.58
2022-11-20T17:26:02.904Z,-2.57
2022-11-20T17:28:36.047Z,-2.57
2022-11-20T17:31:10.186Z,-2.54
2022-11-20T17:33:42.599Z,-2.52
2022-11-20T17:36:17.218Z,-2.51
2022-11-20T17:38:48.352Z,-2.51
2022-11-20T17:41:22.505Z,-2.55
2022-11-20T17:43:57.469Z,-2.52
2022-11-20T17:46:33.998Z,-2.52
2022-11-20T17:49:06.208Z,-2.54
2022-11-20T17:51:38.005Z,-2.55
2022-11-20T17:54:08.919Z,-2.51
2022-11-20T17:56:58.382Z,-2.53
2022-11-20T17:59:30.176Z,-2.51
2022-11-20T18:02:03.868Z,-2.48
2022-11-20T18:04:35.992Z,-2.52
2022-11-20T18:07:06.802Z,-2.51
2022-11-20T18:09:40.722Z,-2.51
2022-11-20T18:12:12.310Z,-2.49
2022-11-20T18:14:44.668Z,-2.48
2022-11-20T18:17:16.597Z,-2.48
2022-11-20T18:20:07.053Z,-2.51
2022-11-20T18:22:42.208Z,-2.53
2022-11-20T18:25:13.526Z,-2.52
2022-11-20T18:27:45.576Z,-2.53
2022-11-20T18:30:18.128Z,-2.54
2022-11-20T18:32:52.175Z,-2.53
2022-11-20T18:35:24.072Z,-2.54
2022-11-20T18:37:57.304Z,-2.53
2022-11-20T18:40:27.984Z,-2.52
2022-11-20T18:43:17.149Z,-2.53
2022-11-20T18:45:50.167Z,-2.52
2022-11-20T18:48:20.738Z,-2.54
2022-11-20T18:50:51.831Z,-2.53
2022-11-20T18:53:23.840Z,-2.54
2022-11-20T18:55:54.117Z,-2.54
2022-11-20T18:58:25.307Z,-2.55
2022-11-20T19:00:57.054Z,-2.55
2022-11-20T19:03:30.780Z,-2.55
2022-11-20T19:06:01.057Z,-2.55
2022-11-20T19:08:35.675Z,-2.57
2022-11-20T19:11:09.081Z,-2.56
2022-11-20T19:13:41.016Z,-2.55
2022-11-20T19:16:18.136Z,-2.56
2022-11-20T19:18:48.888Z,-2.58
2022-11-20T19:21:26.884Z,-2.59
2022-11-20T19:24:01.941Z,-2.61
2022-11-20T19:26:37.108Z,-2.65
2022-11-20T19:29:17.143Z,-2.63
2022-11-20T19:31:49.969Z,-2.61
2022-11-20T19:34:22.153Z,-2.62
2022-11-20T19:36:54.759Z,-2.60
2022-11-20T19:39:29.056Z,-2.59
2022-11-20T19:42:03.550Z,-2.57
2022-11-20T19:48:07.995Z,-2.60
2022-11-20T19:50:54.443Z,-2.61
2022-11-20T19:53:33.167Z,-2.63
2022-11-20T19:56:06.426Z,-2.63
2022-11-20T19:58:43.278Z,-2.61
2022-11-20T20:01:19.644Z,-2.60
2022-11-20T20:03:56.967Z,-2.59
2022-11-20T20:06:31.233Z,-2.57
2022-11-20T20:09:06.757Z,-2.56
2022-11-20T20:11:38.537Z,-2.56
2022-11-20T20:14:13.866Z,-2.56
2022-11-20T20:16:45.800Z,-2.56
2022-11-20T20:19:22.104Z,-2.56
2022-11-20T20:21:54.858Z,-2.56
2022-11-20T20:24:25.182Z,-2.54
2022-11-20T20:26:59.594Z,-2.49
2022-11-20T20:29:34.040Z,-2.49
2022-11-20T20:32:09.053Z,-2.52
2022-11-20T20:34:42.894Z,-2.54
2022-11-20T20:37:16.760Z,-2.53
2022-11-20T20:39:49.147Z,-2.50
2022-11-20T20:42:21.149Z,-2.46
2022-11-20T20:45:11.375Z,-2.49
2022-11-20T20:47:42.958Z,-2.47
2022-11-20T20:50:15.408Z,-2.42
2022-11-20T20:52:46.074Z,-2.44
2022-11-20T20:55:17.527Z,-2.39
2022-11-20T20:57:48.098Z,-2.38
2022-11-20T21:00:19.738Z,-2.35
2022-11-20T21:02:50.306Z,-2.35
2022-11-20T21:05:24.110Z,-2.31
2022-11-20T21:08:12.166Z,-2.28
2022-11-20T21:10:42.566Z,-2.22
2022-11-20T21:13:14.106Z,-2.20
2022-11-20T21:15:44.998Z,-2.16
2022-11-20T21:18:16.729Z,-2.15
2022-11-20T21:21:07.763Z,-2.15
2022-11-20T21:23:39.987Z,-2.11
2022-11-20T21:26:12.760Z,-2.10
2022-11-20T21:28:43.388Z,-2.10
2022-11-20T21:31:16.748Z,-2.07
2022-11-20T21:33:49.397Z,-2.08
2022-11-20T21:36:22.927Z,-2.09
2022-11-20T21:38:56.527Z,-2.09
2022-11-20T21:41:30.846Z,-2.12
2022-11-20T21:46:57.166Z,-2.10
2022-11-20T21:49:29.369Z,-2.12
2022-11-20T21:52:00.828Z,-2.10
2022-11-20T21:54:35.987Z,-2.11
2022-11-20T21:57:06.336Z,-2.08
2022-11-20T21:59:39.043Z,-2.11
2022-11-20T22:02:09.580Z,-2.11
2022-11-20T22:04:41.975Z,-2.06
2022-11-20T22:07:13.914Z,-2.06
2022-11-20T22:09:46.048Z,-2.09
2022-11-20T22:12:18.230Z,-2.05
2022-11-20T22:14:47.719Z,-2.04
2022-11-20T22:17:40.089Z,-2.04
2022-11-20T22:20:12.348Z,-2.05
2022-11-20T22:22:46.060Z,-2.04
2022-11-20T22:25:16.796Z,-2.04
2022-11-20T22:27:49.039Z,-2.06
2022-11-20T22:30:19.988Z,-2.05
2022-11-20T22:32:54.427Z,-2.04
2022-11-20T22:35:25.437Z,-2.04
2022-11-20T22:37:56.989Z,-2.03
2022-11-20T22:40:29.623Z,-2.04
2022-11-20T22:43:00.046Z,-2.07
2022-11-20T22:45:33.589Z,-2.08
2022-11-20T22:48:04.267Z,-2.12
2022-11-20T22:50:36.266Z,-2.14
2022-11-20T22:53:07.728Z,-2.16
2022-11-20T22:55:39.396Z,-2.16
2022-11-20T22:58:09.807Z,-2.32
2022-11-20T23:00:42.349Z,-2.19
2022-11-20T23:03:12.648Z,-2.25
2022-11-20T23:05:43.263Z,-2.26
2022-11-20T23:08:15.696Z,-2.30
2022-11-20T23:10:46.374Z,-2.32
2022-11-20T23:13:17.673Z,-2.30
2022-11-20T23:15:48.322Z,-2.28
2022-11-20T23:18:19.811Z,-2.32
2022-11-20T23:20:50.361Z,-2.31
2022-11-20T23:23:24.150Z,-2.28
2022-11-20T23:25:54.671Z,-2.30
2022-11-20T23:28:25.659Z,-2.28
2022-11-20T23:30:56.109Z,-2.26
2022-11-20T23:33:28.070Z,-2.23
2022-11-20T23:35:59.120Z,-2.22
2022-11-20T23:38:30.873Z,-2.21
2022-11-20T23:41:05.330Z,-2.16
2022-11-20T23:43:35.898Z,-2.13
2022-11-20T23:46:07.309Z,-2.11
2022-11-20T23:48:40.607Z,-2.10
2022-11-20T23:51:11.269Z,-2.10
2022-11-20T23:53:43.138Z,-2.09
2022-11-20T23:56:15.701Z,-2.11
2022-11-20T23:58:46.314Z,-2.09
